sensor_id;sensor_type;location;lat;lon;timestamp;P1;durP1;ratioP1;P2;durP2;ratioP2
63836;SDS011;49991;50.518;30.486;2022-09-09T07:41:11;3.47;;;2.50;;
63836;SDS011;49991;50.518;30.486;2022-09-09T07:43:59;2.63;;;1.90;;
63836;SDS011;49991;50.518;30.486;2022-09-09T07:46:49;2.95;;;2.15;;
63836;SDS011;49991;50.518;30.486;2022-09-09T07:49:40;2.00;;;1.90;;
63836;SDS011;49991;50.518;30.486;2022-09-09T07:52:26;2.30;;;2.00;;
63836;SDS011;49991;50.518;30.486;2022-09-09T07:56:04;2.42;;;2.20;;
63836;SDS011;49991;50.518;30.486;2022-09-09T07:58:51;4.95;;;2.22;;
63836;SDS011;49991;50.518;30.486;2022-09-09T08:01:38;4.70;;;2.10;;
63836;SDS011;49991;50.518;30.486;2022-09-09T08:04:26;3.45;;;2.30;;
63836;SDS011;49991;50.518;30.486;2022-09-09T08:07:12;4.70;;;2.10;;
63836;SDS011;49991;50.518;30.486;2022-09-09T08:10:04;2.78;;;2.10;;
63836;SDS011;49991;50.518;30.486;2022-09-09T08:12:53;4.65;;;2.03;;
63836;SDS011;49991;50.518;30.486;2022-09-09T08:15:38;2.40;;;2.00;;
63836;SDS011;49991;50.518;30.486;2022-09-09T08:18:26;3.03;;;2.30;;
63836;SDS011;49991;50.518;30.486;2022-09-09T08:21:15;4.03;;;2.30;;
63836;SDS011;49991;50.518;30.486;2022-09-09T08:24:03;2.13;;;1.98;;
63836;SDS011;49991;50.518;30.486;2022-09-09T08:26:49;1.98;;;1.77;;
63836;SDS011;49991;50.518;30.486;2022-09-09T08:29:39;8.23;;;1.75;;
63836;SDS011;49991;50.518;30.486;2022-09-09T08:32:25;1.95;;;1.85;;
63836;SDS011;49991;50.518;30.486;2022-09-09T08:35:11;2.65;;;2.00;;
63836;SDS011;49991;50.518;30.486;2022-09-09T08:37:57;1.63;;;1.52;;
63836;SDS011;49991;50.518;30.486;2022-09-09T08:40:42;1.65;;;1.55;;
63836;SDS011;49991;50.518;30.486;2022-09-09T08:43:34;2.00;;;1.80;;
63836;SDS011;49991;50.518;30.486;2022-09-09T08:46:21;1.60;;;1.50;;
63836;SDS011;49991;50.518;30.486;2022-09-09T08:49:16;2.25;;;1.63;;
63836;SDS011;49991;50.518;30.486;2022-09-09T08:52:19;1.70;;;1.60;;
63836;SDS011;49991;50.518;30.486;2022-09-09T08:55:12;5.05;;;2.03;;
63836;SDS011;49991;50.518;30.486;2022-09-09T08:58:09;3.22;;;2.00;;
63836;SDS011;49991;50.518;30.486;2022-09-09T09:00:59;3.92;;;2.00;;
63836;SDS011;49991;50.518;30.486;2022-09-09T09:03:53;2.83;;;2.38;;
63836;SDS011;49991;50.518;30.486;2022-09-09T09:06:47;2.10;;;1.92;;
63836;SDS011;49991;50.518;30.486;2022-09-09T09:09:41;1.85;;;1.73;;
63836;SDS011;49991;50.518;30.486;2022-09-09T09:12:37;2.47;;;1.73;;
63836;SDS011;49991;50.518;30.486;2022-09-09T09:15:30;1.90;;;1.80;;
63836;SDS011;49991;50.518;30.486;2022-09-09T09:18:21;2.60;;;1.60;;
63836;SDS011;49991;50.518;30.486;2022-09-09T09:21:10;3.90;;;1.70;;
63836;SDS011;49991;50.518;30.486;2022-09-09T09:24:00;3.25;;;1.77;;
63836;SDS011;49991;50.518;30.486;2022-09-09T09:26:49;7.07;;;1.90;;
63836;SDS011;49991;50.518;30.486;2022-09-09T09:29:37;6.75;;;1.90;;
63836;SDS011;49991;50.518;30.486;2022-09-09T09:32:25;3.08;;;1.80;;
63836;SDS011;49991;50.518;30.486;2022-09-09T09:35:13;2.78;;;1.85;;
63836;SDS011;49991;50.518;30.486;2022-09-09T09:38:01;3.45;;;1.65;;
63836;SDS011;49991;50.518;30.486;2022-09-09T09:40:55;2.70;;;1.70;;
63836;SDS011;49991;50.518;30.486;2022-09-09T09:43:52;1.83;;;1.73;;
63836;SDS011;49991;50.518;30.486;2022-09-09T09:46:39;2.42;;;1.48;;
63836;SDS011;49991;50.518;30.486;2022-09-09T09:49:29;3.42;;;1.73;;
63836;SDS011;49991;50.518;30.486;2022-09-09T09:52:16;2.30;;;1.77;;
63836;SDS011;49991;50.518;30.486;2022-09-09T09:55:13;2.22;;;1.70;;
63836;SDS011;49991;50.518;30.486;2022-09-09T09:58:02;5.57;;;1.60;;
63836;SDS011;49991;50.518;30.486;2022-09-09T10:00:48;1.92;;;1.67;;
63836;SDS011;49991;50.518;30.486;2022-09-09T10:03:36;1.60;;;1.50;;
63836;SDS011;49991;50.518;30.486;2022-09-09T10:06:31;4.00;;;1.67;;
63836;SDS011;49991;50.518;30.486;2022-09-09T10:09:20;2.95;;;1.60;;
63836;SDS011;49991;50.518;30.486;2022-09-09T10:12:12;1.25;;;1.25;;
63836;SDS011;49991;50.518;30.486;2022-09-09T10:15:14;2.00;;;1.30;;
63836;SDS011;49991;50.518;30.486;2022-09-09T10:18:16;1.60;;;1.50;;
63836;SDS011;49991;50.518;30.486;2022-09-09T10:21:15;1.73;;;1.40;;
63836;SDS011;49991;50.518;30.486;2022-09-09T10:24:39;2.53;;;1.30;;
63836;SDS011;49991;50.518;30.486;2022-09-09T10:27:36;2.00;;;1.35;;
63836;SDS011;49991;50.518;30.486;2022-09-09T10:30:29;1.48;;;1.38;;
63836;SDS011;49991;50.518;30.486;2022-09-09T10:33:23;1.33;;;1.23;;
63836;SDS011;49991;50.518;30.486;2022-09-09T10:36:14;1.40;;;1.30;;
63836;SDS011;49991;50.518;30.486;2022-09-09T10:39:04;1.20;;;1.17;;
63836;SDS011;49991;50.518;30.486;2022-09-09T10:42:01;1.25;;;1.15;;
63836;SDS011;49991;50.518;30.486;2022-09-09T10:44:55;1.70;;;1.60;;
63836;SDS011;49991;50.518;30.486;2022-09-09T10:48:16;3.47;;;1.45;;
63836;SDS011;49991;50.518;30.486;2022-09-09T10:51:21;1.20;;;1.15;;
63836;SDS011;49991;50.518;30.486;2022-09-09T10:54:20;4.00;;;1.33;;
63836;SDS011;49991;50.518;30.486;2022-09-09T10:57:15;3.80;;;1.77;;
63836;SDS011;49991;50.518;30.486;2022-09-09T11:00:15;7.53;;;1.98;;
63836;SDS011;49991;50.518;30.486;2022-09-09T11:03:04;7.93;;;2.20;;
63836;SDS011;49991;50.518;30.486;2022-09-09T11:05:51;11.63;;;2.22;;
63836;SDS011;49991;50.518;30.486;2022-09-09T11:08:40;9.93;;;2.13;;
63836;SDS011;49991;50.518;30.486;2022-09-09T11:11:27;7.25;;;2.17;;
63836;SDS011;49991;50.518;30.486;2022-09-09T11:14:18;7.15;;;1.92;;
63836;SDS011;49991;50.518;30.486;2022-09-09T11:17:13;4.90;;;1.60;;
63836;SDS011;49991;50.518;30.486;2022-09-09T11:20:05;3.10;;;1.40;;
63836;SDS011;49991;50.518;30.486;2022-09-09T11:22:52;2.28;;;1.60;;
63836;SDS011;49991;50.518;30.486;2022-09-09T11:25:40;4.07;;;1.42;;
63836;SDS011;49991;50.518;30.486;2022-09-09T11:28:32;6.28;;;1.75;;
63836;SDS011;49991;50.518;30.486;2022-09-09T11:31:37;2.08;;;1.50;;
63836;SDS011;49991;50.518;30.486;2022-09-09T11:34:37;4.45;;;1.73;;
63836;SDS011;49991;50.518;30.486;2022-09-09T11:37:44;4.07;;;2.13;;
63836;SDS011;49991;50.518;30.486;2022-09-09T11:40:47;3.88;;;1.83;;
63836;SDS011;49991;50.518;30.486;2022-09-09T11:43:39;6.15;;;1.55;;
63836;SDS011;49991;50.518;30.486;2022-09-09T11:46:31;1.42;;;1.20;;
63836;SDS011;49991;50.518;30.486;2022-09-09T11:49:25;2.35;;;1.58;;
63836;SDS011;49991;50.518;30.486;2022-09-09T11:52:18;1.80;;;1.70;;
63836;SDS011;49991;50.518;30.486;2022-09-09T11:55:08;4.63;;;1.98;;
63836;SDS011;49991;50.518;30.486;2022-09-09T11:57:57;4.63;;;1.25;;
63836;SDS011;49991;50.518;30.486;2022-09-09T12:00:44;1.70;;;1.40;;
63836;SDS011;49991;50.518;30.486;2022-09-09T12:03:35;2.67;;;1.80;;
63836;SDS011;49991;50.518;30.486;2022-09-09T12:06:25;1.77;;;1.52;;
63836;SDS011;49991;50.518;30.486;2022-09-09T12:09:19;2.35;;;1.33;;
63836;SDS011;49991;50.518;30.486;2022-09-09T12:12:21;3.03;;;1.55;;
63836;SDS011;49991;50.518;30.486;2022-09-09T12:15:23;2.08;;;1.38;;
63836;SDS011;49991;50.518;30.486;2022-09-09T12:18:14;2.97;;;1.98;;
63836;SDS011;49991;50.518;30.486;2022-09-09T12:21:07;2.55;;;1.55;;
63836;SDS011;49991;50.518;30.486;2022-09-09T12:24:02;1.40;;;1.30;;
63836;SDS011;49991;50.518;30.486;2022-09-09T12:26:56;2.42;;;1.52;;
63836;SDS011;49991;50.518;30.486;2022-09-09T12:29:49;1.60;;;1.50;;
63836;SDS011;49991;50.518;30.486;2022-09-09T12:32:42;2.05;;;1.60;;
63836;SDS011;49991;50.518;30.486;2022-09-09T12:35:28;1.10;;;1.10;;
63836;SDS011;49991;50.518;30.486;2022-09-09T12:38:17;1.40;;;1.30;;
63836;SDS011;49991;50.518;30.486;2022-09-09T12:41:15;1.75;;;1.65;;
63836;SDS011;49991;50.518;30.486;2022-09-09T12:44:06;4.55;;;1.70;;
63836;SDS011;49991;50.518;30.486;2022-09-09T12:46:54;2.63;;;1.50;;
63836;SDS011;49991;50.518;30.486;2022-09-09T12:49:43;1.98;;;1.30;;
63836;SDS011;49991;50.518;30.486;2022-09-09T12:52:29;2.92;;;1.65;;
63836;SDS011;49991;50.518;30.486;2022-09-09T12:55:18;2.05;;;1.50;;
63836;SDS011;49991;50.518;30.486;2022-09-09T12:58:05;1.70;;;1.60;;
63836;SDS011;49991;50.518;30.486;2022-09-09T13:00:53;2.58;;;1.70;;
63836;SDS011;49991;50.518;30.486;2022-09-09T13:03:41;2.50;;;1.45;;
63836;SDS011;49991;50.518;30.486;2022-09-09T13:06:31;1.85;;;1.40;;
63836;SDS011;49991;50.518;30.486;2022-09-09T13:09:18;2.78;;;1.92;;
63836;SDS011;49991;50.518;30.486;2022-09-09T13:14:51;4.15;;;2.00;;
63836;SDS011;49991;50.518;30.486;2022-09-09T13:17:42;2.15;;;1.42;;
63836;SDS011;49991;50.518;30.486;2022-09-09T13:20:35;1.70;;;1.60;;
63836;SDS011;49991;50.518;30.486;2022-09-09T13:23:20;2.23;;;1.53;;
63836;SDS011;49991;50.518;30.486;2022-09-09T13:26:18;2.20;;;2.00;;
63836;SDS011;49991;50.518;30.486;2022-09-09T13:29:15;1.60;;;1.50;;
63836;SDS011;49991;50.518;30.486;2022-09-09T13:32:06;1.80;;;1.70;;
63836;SDS011;49991;50.518;30.486;2022-09-09T13:34:59;1.92;;;1.40;;
63836;SDS011;49991;50.518;30.486;2022-09-09T13:37:46;4.07;;;1.98;;
63836;SDS011;49991;50.518;30.486;2022-09-09T13:40:31;2.13;;;1.50;;
63836;SDS011;49991;50.518;30.486;2022-09-09T13:43:20;2.50;;;1.80;;
63836;SDS011;49991;50.518;30.486;2022-09-09T13:46:21;2.72;;;2.20;;
63836;SDS011;49991;50.518;30.486;2022-09-09T13:49:19;3.88;;;1.83;;
63836;SDS011;49991;50.518;30.486;2022-09-09T13:52:10;1.80;;;1.70;;
63836;SDS011;49991;50.518;30.486;2022-09-09T13:54:57;1.80;;;1.70;;
63836;SDS011;49991;50.518;30.486;2022-09-09T13:57:49;3.42;;;1.60;;
63836;SDS011;49991;50.518;30.486;2022-09-09T14:00:35;2.85;;;1.50;;
63836;SDS011;49991;50.518;30.486;2022-09-09T14:03:20;1.80;;;1.70;;
63836;SDS011;49991;50.518;30.486;2022-09-09T14:06:06;1.67;;;1.58;;
63836;SDS011;49991;50.518;30.486;2022-09-09T14:08:53;1.85;;;1.70;;
63836;SDS011;49991;50.518;30.486;2022-09-09T14:11:38;2.22;;;1.65;;
63836;SDS011;49991;50.518;30.486;2022-09-09T14:14:24;1.50;;;1.40;;
63836;SDS011;49991;50.518;30.486;2022-09-09T14:17:10;3.28;;;1.67;;
63836;SDS011;49991;50.518;30.486;2022-09-09T14:19:55;1.70;;;1.58;;
63836;SDS011;49991;50.518;30.486;2022-09-09T14:22:41;3.40;;;2.55;;
63836;SDS011;49991;50.518;30.486;2022-09-09T14:25:28;2.10;;;1.73;;
63836;SDS011;49991;50.518;30.486;2022-09-09T14:28:15;2.13;;;1.90;;
63836;SDS011;49991;50.518;30.486;2022-09-09T14:31:01;2.75;;;2.00;;
63836;SDS011;49991;50.518;30.486;2022-09-09T14:33:47;2.53;;;1.90;;
63836;SDS011;49991;50.518;30.486;2022-09-09T14:36:32;1.60;;;1.50;;
63836;SDS011;49991;50.518;30.486;2022-09-09T14:39:18;3.38;;;1.60;;
63836;SDS011;49991;50.518;30.486;2022-09-09T14:42:05;2.30;;;1.73;;
63836;SDS011;49991;50.518;30.486;2022-09-09T14:44:50;1.77;;;1.67;;
63836;SDS011;49991;50.518;30.486;2022-09-09T14:47:36;1.80;;;1.63;;
63836;SDS011;49991;50.518;30.486;2022-09-09T14:50:21;2.37;;;1.70;;
63836;SDS011;49991;50.518;30.486;2022-09-09T14:53:08;1.73;;;1.63;;
63836;SDS011;49991;50.518;30.486;2022-09-09T14:55:58;3.50;;;1.90;;
63836;SDS011;49991;50.518;30.486;2022-09-09T14:58:49;2.30;;;2.00;;
63836;SDS011;49991;50.518;30.486;2022-09-09T15:01:36;1.65;;;1.55;;
63836;SDS011;49991;50.518;30.486;2022-09-09T15:04:21;3.45;;;1.67;;
63836;SDS011;49991;50.518;30.486;2022-09-09T15:07:06;4.35;;;1.92;;
63836;SDS011;49991;50.518;30.486;2022-09-09T15:09:52;2.30;;;2.10;;
63836;SDS011;49991;50.518;30.486;2022-09-09T15:12:38;3.90;;;2.28;;
63836;SDS011;49991;50.518;30.486;2022-09-09T15:15:25;2.97;;;2.13;;
63836;SDS011;49991;50.518;30.486;2022-09-09T15:18:10;3.97;;;2.30;;
63836;SDS011;49991;50.518;30.486;2022-09-09T15:20:57;3.95;;;2.50;;
63836;SDS011;49991;50.518;30.486;2022-09-09T15:23:42;3.83;;;2.20;;
63836;SDS011;49991;50.518;30.486;2022-09-09T15:26:28;3.00;;;2.25;;
63836;SDS011;49991;50.518;30.486;2022-09-09T15:29:13;3.75;;;2.50;;
63836;SDS011;49991;50.518;30.486;2022-09-09T15:32:00;3.55;;;2.45;;
63836;SDS011;49991;50.518;30.486;2022-09-09T15:34:45;2.72;;;2.42;;
63836;SDS011;49991;50.518;30.486;2022-09-09T15:37:31;2.60;;;2.33;;
63836;SDS011;49991;50.518;30.486;2022-09-09T15:40:16;4.93;;;3.13;;
63836;SDS011;49991;50.518;30.486;2022-09-09T15:43:02;2.67;;;2.47;;
63836;SDS011;49991;50.518;30.486;2022-09-09T15:45:49;2.75;;;2.40;;
63836;SDS011;49991;50.518;30.486;2022-09-09T15:48:45;5.18;;;2.72;;
63836;SDS011;49991;50.518;30.486;2022-09-09T15:51:32;4.07;;;3.00;;
63836;SDS011;49991;50.518;30.486;2022-09-09T15:54:18;5.45;;;2.80;;
63836;SDS011;49991;50.518;30.486;2022-09-09T15:57:07;3.28;;;2.80;;
63836;SDS011;49991;50.518;30.486;2022-09-09T15:59:56;3.28;;;2.97;;
63836;SDS011;49991;50.518;30.486;2022-09-09T16:02:43;5.35;;;3.25;;
63836;SDS011;49991;50.518;30.486;2022-09-09T16:05:30;5.00;;;2.85;;
63836;SDS011;49991;50.518;30.486;2022-09-09T16:08:15;5.57;;;3.45;;
63836;SDS011;49991;50.518;30.486;2022-09-09T16:11:05;6.82;;;3.70;;
63836;SDS011;49991;50.518;30.486;2022-09-09T16:13:53;7.55;;;3.45;;
63836;SDS011;49991;50.518;30.486;2022-09-09T16:16:39;6.07;;;3.80;;
63836;SDS011;49991;50.518;30.486;2022-09-09T16:19:25;4.72;;;3.03;;
63836;SDS011;49991;50.518;30.486;2022-09-09T16:22:12;5.63;;;3.22;;
63836;SDS011;49991;50.518;30.486;2022-09-09T16:24:59;5.68;;;3.30;;
63836;SDS011;49991;50.518;30.486;2022-09-09T16:27:44;4.60;;;3.83;;
63836;SDS011;49991;50.518;30.486;2022-09-09T16:30:30;5.50;;;3.70;;
63836;SDS011;49991;50.518;30.486;2022-09-09T16:33:16;5.68;;;3.65;;
63836;SDS011;49991;50.518;30.486;2022-09-09T16:36:04;5.30;;;3.83;;
63836;SDS011;49991;50.518;30.486;2022-09-09T16:38:53;6.70;;;3.97;;
63836;SDS011;49991;50.518;30.486;2022-09-09T16:41:39;5.05;;;3.58;;
63836;SDS011;49991;50.518;30.486;2022-09-09T16:44:25;8.57;;;4.80;;
63836;SDS011;49991;50.518;30.486;2022-09-09T16:47:11;11.50;;;4.78;;
63836;SDS011;49991;50.518;30.486;2022-09-09T16:49:57;5.85;;;4.15;;
63836;SDS011;49991;50.518;30.486;2022-09-09T16:52:42;6.60;;;4.23;;
63836;SDS011;49991;50.518;30.486;2022-09-09T16:55:29;6.95;;;4.40;;
63836;SDS011;49991;50.518;30.486;2022-09-09T16:58:14;9.52;;;4.80;;
63836;SDS011;49991;50.518;30.486;2022-09-09T17:00:59;7.80;;;4.55;;
63836;SDS011;49991;50.518;30.486;2022-09-09T17:03:45;8.20;;;4.82;;
63836;SDS011;49991;50.518;30.486;2022-09-09T17:06:31;7.28;;;5.07;;
63836;SDS011;49991;50.518;30.486;2022-09-09T17:09:18;8.32;;;4.88;;
63836;SDS011;49991;50.518;30.486;2022-09-09T17:12:07;7.97;;;4.47;;
63836;SDS011;49991;50.518;30.486;2022-09-09T17:14:55;8.90;;;4.88;;
63836;SDS011;49991;50.518;30.486;2022-09-09T17:17:42;9.55;;;5.05;;
63836;SDS011;49991;50.518;30.486;2022-09-09T17:20:29;6.05;;;4.60;;
63836;SDS011;49991;50.518;30.486;2022-09-09T17:23:14;7.07;;;4.63;;
63836;SDS011;49991;50.518;30.486;2022-09-09T17:25:59;7.27;;;5.00;;
63836;SDS011;49991;50.518;30.486;2022-09-09T17:28:46;10.48;;;4.93;;
63836;SDS011;49991;50.518;30.486;2022-09-09T17:31:32;7.20;;;4.75;;
63836;SDS011;49991;50.518;30.486;2022-09-09T17:34:18;7.47;;;4.40;;
63836;SDS011;49991;50.518;30.486;2022-09-09T17:37:03;7.97;;;5.20;;
63836;SDS011;49991;50.518;30.486;2022-09-09T17:39:49;9.57;;;5.20;;
63836;SDS011;49991;50.518;30.486;2022-09-09T17:42:35;9.90;;;5.10;;
63836;SDS011;49991;50.518;30.486;2022-09-09T17:45:22;8.80;;;5.20;;
63836;SDS011;49991;50.518;30.486;2022-09-09T17:48:07;9.30;;;5.95;;
63836;SDS011;49991;50.518;30.486;2022-09-09T17:50:56;6.50;;;5.37;;
63836;SDS011;49991;50.518;30.486;2022-09-09T17:53:44;8.77;;;5.50;;
63836;SDS011;49991;50.518;30.486;2022-09-09T17:56:31;9.05;;;5.95;;
63836;SDS011;49991;50.518;30.486;2022-09-09T17:59:17;8.48;;;5.10;;
63836;SDS011;49991;50.518;30.486;2022-09-09T18:02:04;7.75;;;5.30;;
63836;SDS011;49991;50.518;30.486;2022-09-09T18:04:49;7.03;;;5.20;;
63836;SDS011;49991;50.518;30.486;2022-09-09T18:07:35;8.55;;;5.45;;
63836;SDS011;49991;50.518;30.486;2022-09-09T18:10:20;11.33;;;5.30;;
63836;SDS011;49991;50.518;30.486;2022-09-09T18:13:06;7.30;;;4.63;;
63836;SDS011;49991;50.518;30.486;2022-09-09T18:15:52;6.68;;;4.80;;
63836;SDS011;49991;50.518;30.486;2022-09-09T18:18:41;8.15;;;5.10;;
63836;SDS011;49991;50.518;30.486;2022-09-09T18:21:27;6.93;;;4.55;;
63836;SDS011;49991;50.518;30.486;2022-09-09T18:24:16;9.13;;;4.95;;
63836;SDS011;49991;50.518;30.486;2022-09-09T18:27:03;6.78;;;4.57;;
63836;SDS011;49991;50.518;30.486;2022-09-09T18:29:49;6.90;;;4.28;;
63836;SDS011;49991;50.518;30.486;2022-09-09T18:32:35;6.30;;;3.73;;
63836;SDS011;49991;50.518;30.486;2022-09-09T18:35:21;10.10;;;4.47;;
63836;SDS011;49991;50.518;30.486;2022-09-09T18:38:07;8.88;;;4.60;;
63836;SDS011;49991;50.518;30.486;2022-09-09T18:40:52;6.40;;;4.20;;
63836;SDS011;49991;50.518;30.486;2022-09-09T18:43:37;4.82;;;3.63;;
63836;SDS011;49991;50.518;30.486;2022-09-09T18:46:23;5.57;;;3.85;;
63836;SDS011;49991;50.518;30.486;2022-09-09T18:49:09;4.82;;;3.58;;
63836;SDS011;49991;50.518;30.486;2022-09-09T18:51:57;4.63;;;4.03;;
63836;SDS011;49991;50.518;30.486;2022-09-09T18:54:42;5.82;;;3.53;;
63836;SDS011;49991;50.518;30.486;2022-09-09T18:57:28;4.53;;;3.17;;
63836;SDS011;49991;50.518;30.486;2022-09-09T19:00:14;4.67;;;3.20;;
63836;SDS011;49991;50.518;30.486;2022-09-09T19:02:59;13.70;;;4.00;;
63836;SDS011;49991;50.518;30.486;2022-09-09T19:05:44;23.80;;;3.80;;
63836;SDS011;49991;50.518;30.486;2022-09-09T19:08:33;7.15;;;3.75;;
63836;SDS011;49991;50.518;30.486;2022-09-09T19:11:21;11.57;;;3.50;;
63836;SDS011;49991;50.518;30.486;2022-09-09T19:14:09;8.68;;;3.45;;
63836;SDS011;49991;50.518;30.486;2022-09-09T19:16:56;8.30;;;3.30;;
63836;SDS011;49991;50.518;30.486;2022-09-09T19:19:41;8.73;;;3.30;;
63836;SDS011;49991;50.518;30.486;2022-09-09T19:22:26;11.05;;;3.88;;
63836;SDS011;49991;50.518;30.486;2022-09-09T19:25:13;6.00;;;2.90;;
63836;SDS011;49991;50.518;30.486;2022-09-09T19:27:59;5.95;;;2.92;;
63836;SDS011;49991;50.518;30.486;2022-09-09T19:30:46;4.30;;;2.80;;
63836;SDS011;49991;50.518;30.486;2022-09-09T19:33:32;5.22;;;3.15;;
63836;SDS011;49991;50.518;30.486;2022-09-09T19:36:18;3.67;;;3.05;;
63836;SDS011;49991;50.518;30.486;2022-09-09T19:39:04;4.07;;;2.80;;
63836;SDS011;49991;50.518;30.486;2022-09-09T19:41:52;5.43;;;3.17;;
63836;SDS011;49991;50.518;30.486;2022-09-09T19:44:37;5.25;;;2.92;;
63836;SDS011;49991;50.518;30.486;2022-09-09T19:47:23;4.70;;;3.00;;
63836;SDS011;49991;50.518;30.486;2022-09-09T19:50:08;6.27;;;3.33;;
63836;SDS011;49991;50.518;30.486;2022-09-09T19:52:53;5.55;;;3.58;;
63836;SDS011;49991;50.518;30.486;2022-09-09T19:55:39;5.07;;;3.20;;
63836;SDS011;49991;50.518;30.486;2022-09-09T19:58:25;5.00;;;3.30;;
63836;SDS011;49991;50.518;30.486;2022-09-09T20:01:12;6.15;;;3.42;;
63836;SDS011;49991;50.518;30.486;2022-09-09T20:04:00;6.80;;;3.95;;
63836;SDS011;49991;50.518;30.486;2022-09-09T20:06:47;5.18;;;3.53;;
63836;SDS011;49991;50.518;30.486;2022-09-09T20:09:35;5.85;;;3.55;;
63836;SDS011;49991;50.518;30.486;2022-09-09T20:12:21;11.40;;;4.37;;
63836;SDS011;49991;50.518;30.486;2022-09-09T20:15:08;10.25;;;3.63;;
63836;SDS011;49991;50.518;30.486;2022-09-09T20:17:53;5.57;;;3.80;;
63836;SDS011;49991;50.518;30.486;2022-09-09T20:20:39;6.80;;;3.53;;
63836;SDS011;49991;50.518;30.486;2022-09-09T20:23:25;10.60;;;3.97;;
63836;SDS011;49991;50.518;30.486;2022-09-09T20:26:12;8.77;;;3.67;;
63836;SDS011;49991;50.518;30.486;2022-09-09T20:29:00;6.38;;;3.70;;
63836;SDS011;49991;50.518;30.486;2022-09-09T20:31:49;6.35;;;3.50;;
63836;SDS011;49991;50.518;30.486;2022-09-09T20:34:34;12.95;;;4.20;;
63836;SDS011;49991;50.518;30.486;2022-09-09T20:37:19;9.10;;;3.80;;
63836;SDS011;49991;50.518;30.486;2022-09-09T20:40:06;7.13;;;4.57;;
63836;SDS011;49991;50.518;30.486;2022-09-09T20:42:53;11.80;;;10.05;;
63836;SDS011;49991;50.518;30.486;2022-09-09T20:45:38;10.55;;;5.13;;
63836;SDS011;49991;50.518;30.486;2022-09-09T20:48:28;9.80;;;5.07;;
63836;SDS011;49991;50.518;30.486;2022-09-09T20:51:16;9.75;;;4.90;;
63836;SDS011;49991;50.518;30.486;2022-09-09T20:54:03;6.05;;;4.15;;
63836;SDS011;49991;50.518;30.486;2022-09-09T20:56:49;7.10;;;4.55;;
63836;SDS011;49991;50.518;30.486;2022-09-09T20:59:36;5.72;;;3.97;;
63836;SDS011;49991;50.518;30.486;2022-09-09T21:02:21;5.38;;;3.80;;
63836;SDS011;49991;50.518;30.486;2022-09-09T21:05:08;6.03;;;4.17;;
63836;SDS011;49991;50.518;30.486;2022-09-09T21:07:54;4.68;;;4.07;;
63836;SDS011;49991;50.518;30.486;2022-09-09T21:10:42;4.15;;;3.20;;
63836;SDS011;49991;50.518;30.486;2022-09-09T21:13:28;6.18;;;3.67;;
63836;SDS011;49991;50.518;30.486;2022-09-09T21:16:15;6.07;;;3.80;;
63836;SDS011;49991;50.518;30.486;2022-09-09T21:19:02;6.22;;;3.97;;
63836;SDS011;49991;50.518;30.486;2022-09-09T21:21:49;5.50;;;3.80;;
63836;SDS011;49991;50.518;30.486;2022-09-09T21:24:34;4.55;;;3.78;;
63836;SDS011;49991;50.518;30.486;2022-09-09T21:30:06;4.68;;;3.70;;
63836;SDS011;49991;50.518;30.486;2022-09-09T21:35:38;4.63;;;3.63;;
63836;SDS011;49991;50.518;30.486;2022-09-09T21:38:25;4.57;;;2.92;;
63836;SDS011;49991;50.518;30.486;2022-09-09T21:41:12;4.90;;;3.42;;
63836;SDS011;49991;50.518;30.486;2022-09-09T21:43:59;6.57;;;3.63;;
63836;SDS011;49991;50.518;30.486;2022-09-09T21:46:44;5.80;;;3.65;;
63836;SDS011;49991;50.518;30.486;2022-09-09T21:49:29;4.15;;;3.45;;
63836;SDS011;49991;50.518;30.486;2022-09-09T21:52:15;4.10;;;3.40;;
63836;SDS011;49991;50.518;30.486;2022-09-09T21:55:02;4.78;;;3.53;;
63836;SDS011;49991;50.518;30.486;2022-09-09T21:57:47;4.18;;;3.10;;
63836;SDS011;49991;50.518;30.486;2022-09-09T22:00:33;6.00;;;3.10;;
63836;SDS011;49991;50.518;30.486;2022-09-09T22:06:05;5.60;;;3.30;;
63836;SDS011;49991;50.518;30.486;2022-09-09T22:14:25;3.50;;;3.15;;
63836;SDS011;49991;50.518;30.486;2022-09-09T22:17:10;4.13;;;3.20;;
63836;SDS011;49991;50.518;30.486;2022-09-09T22:19:55;4.23;;;3.33;;
63836;SDS011;49991;50.518;30.486;2022-09-09T22:22:41;5.18;;;3.60;;
63836;SDS011;49991;50.518;30.486;2022-09-09T22:25:27;5.07;;;3.13;;
63836;SDS011;49991;50.518;30.486;2022-09-09T22:28:17;3.80;;;3.30;;
63836;SDS011;49991;50.518;30.486;2022-09-09T22:31:03;4.15;;;3.42;;
63836;SDS011;49991;50.518;30.486;2022-09-09T22:33:49;4.95;;;3.22;;
63836;SDS011;49991;50.518;30.486;2022-09-09T22:36:34;3.33;;;3.00;;
63836;SDS011;49991;50.518;30.486;2022-09-09T22:39:20;5.22;;;3.05;;
63836;SDS011;49991;50.518;30.486;2022-09-09T22:42:05;4.47;;;2.92;;
63836;SDS011;49991;50.518;30.486;2022-09-09T22:44:52;6.10;;;3.50;;
63836;SDS011;49991;50.518;30.486;2022-09-09T22:47:37;3.83;;;3.35;;
63836;SDS011;49991;50.518;30.486;2022-09-09T22:50:25;4.38;;;3.40;;
63836;SDS011;49991;50.518;30.486;2022-09-09T22:55:58;4.03;;;3.23;;
63836;SDS011;49991;50.518;30.486;2022-09-09T22:58:46;3.80;;;2.92;;
63836;SDS011;49991;50.518;30.486;2022-09-09T23:01:38;5.10;;;3.20;;
63836;SDS011;49991;50.518;30.486;2022-09-09T23:04:23;3.72;;;3.08;;
63836;SDS011;49991;50.518;30.486;2022-09-09T23:07:08;8.00;;;2.90;;
63836;SDS011;49991;50.518;30.486;2022-09-09T23:09:54;4.07;;;3.10;;
63836;SDS011;49991;50.518;30.486;2022-09-09T23:12:39;6.03;;;3.43;;
63836;SDS011;49991;50.518;30.486;2022-09-09T23:15:25;4.50;;;2.90;;
63836;SDS011;49991;50.518;30.486;2022-09-09T23:18:13;8.68;;;3.15;;
63836;SDS011;49991;50.518;30.486;2022-09-09T23:20:58;6.47;;;3.50;;
63836;SDS011;49991;50.518;30.486;2022-09-09T23:23:44;5.37;;;3.10;;
63836;SDS011;49991;50.518;30.486;2022-09-09T23:26:29;4.30;;;2.90;;
63836;SDS011;49991;50.518;30.486;2022-09-09T23:29:16;4.68;;;3.20;;
63836;SDS011;49991;50.518;30.486;2022-09-09T23:32:02;3.55;;;2.90;;
63836;SDS011;49991;50.518;30.486;2022-09-09T23:34:50;4.60;;;3.55;;
63836;SDS011;49991;50.518;30.486;2022-09-09T23:37:35;3.60;;;3.10;;
63836;SDS011;49991;50.518;30.486;2022-09-09T23:43:06;3.28;;;2.80;;
63836;SDS011;49991;50.518;30.486;2022-09-09T23:45:52;4.17;;;3.23;;
63836;SDS011;49991;50.518;30.486;2022-09-09T23:48:37;4.67;;;3.20;;
63836;SDS011;49991;50.518;30.486;2022-09-09T23:51:25;4.47;;;3.15;;
63836;SDS011;49991;50.518;30.486;2022-09-09T23:54:13;3.50;;;3.20;;
63836;SDS011;49991;50.518;30.486;2022-09-09T23:56:59;4.57;;;2.90;;
